sensor_id;sensor_type;location;lat;lon;timestamp;P1;durP1;ratioP1;P2;durP2;ratioP2
5491;SDS011;2768;53.540;10.224;2023-11-19T00:04:18;5.43;;;4.93;;
5491;SDS011;2768;53.540;10.224;2023-11-19T00:10:13;7.27;;;5.40;;
5491;SDS011;2768;53.540;10.224;2023-11-19T00:16:10;4.97;;;4.47;;
5491;SDS011;2768;53.540;10.224;2023-11-19T00:22:04;4.77;;;4.27;;
5491;SDS011;2768;53.540;10.224;2023-11-19T00:27:59;4.67;;;4.27;;
5491;SDS011;2768;53.540;10.224;2023-11-19T00:33:54;4.80;;;4.40;;
5491;SDS011;2768;53.540;10.224;2023-11-19T00:39:48;4.93;;;3.60;;
5491;SDS011;2768;53.540;10.224;2023-11-19T00:45:43;4.70;;;3.40;;
5491;SDS011;2768;53.540;10.224;2023-11-19T00:51:36;2.70;;;2.50;;
5491;SDS011;2768;53.540;10.224;2023-11-19T00:57:30;2.97;;;2.67;;
5491;SDS011;2768;53.540;10.224;2023-11-19T01:03:26;2.57;;;2.30;;
5491;SDS011;2768;53.540;10.224;2023-11-19T01:09:19;2.60;;;2.40;;
5491;SDS011;2768;53.540;10.224;2023-11-19T01:15:12;2.67;;;2.47;;
5491;SDS011;2768;53.540;10.224;2023-11-19T01:21:08;2.37;;;2.23;;
5491;SDS011;2768;53.540;10.224;2023-11-19T01:27:01;2.40;;;2.20;;
5491;SDS011;2768;53.540;10.224;2023-11-19T01:32:55;2.13;;;2.00;;
5491;SDS011;2768;53.540;10.224;2023-11-19T01:38:49;1.80;;;1.70;;
5491;SDS011;2768;53.540;10.224;2023-11-19T01:44:54;1.57;;;1.47;;
5491;SDS011;2768;53.540;10.224;2023-11-19T01:50:50;1.63;;;1.53;;
5491;SDS011;2768;53.540;10.224;2023-11-19T01:56:55;1.77;;;1.67;;
5491;SDS011;2768;53.540;10.224;2023-11-19T02:02:49;1.80;;;1.70;;
5491;SDS011;2768;53.540;10.224;2023-11-19T02:08:46;1.83;;;1.70;;
5491;SDS011;2768;53.540;10.224;2023-11-19T02:14:41;1.83;;;1.43;;
5491;SDS011;2768;53.540;10.224;2023-11-19T02:20:34;1.33;;;1.23;;
5491;SDS011;2768;53.540;10.224;2023-11-19T02:26:28;1.10;;;1.00;;
5491;SDS011;2768;53.540;10.224;2023-11-19T02:32:31;1.10;;;1.10;;
5491;SDS011;2768;53.540;10.224;2023-11-19T02:38:25;1.23;;;1.20;;
5491;SDS011;2768;53.540;10.224;2023-11-19T02:44:18;1.10;;;1.10;;
5491;SDS011;2768;53.540;10.224;2023-11-19T02:50:13;1.50;;;1.40;;
5491;SDS011;2768;53.540;10.224;2023-11-19T02:56:07;1.50;;;1.40;;
5491;SDS011;2768;53.540;10.224;2023-11-19T03:02:17;1.70;;;1.50;;
5491;SDS011;2768;53.540;10.224;2023-11-19T03:08:12;1.70;;;1.60;;
5491;SDS011;2768;53.540;10.224;2023-11-19T03:14:14;1.70;;;1.60;;
5491;SDS011;2768;53.540;10.224;2023-11-19T03:20:08;1.70;;;1.60;;
5491;SDS011;2768;53.540;10.224;2023-11-19T03:26:07;1.77;;;1.67;;
5491;SDS011;2768;53.540;10.224;2023-11-19T03:32:03;1.60;;;1.50;;
5491;SDS011;2768;53.540;10.224;2023-11-19T03:37:57;2.00;;;1.90;;
5491;SDS011;2768;53.540;10.224;2023-11-19T03:43:52;1.77;;;1.67;;
5491;SDS011;2768;53.540;10.224;2023-11-19T03:49:47;2.20;;;2.10;;
5491;SDS011;2768;53.540;10.224;2023-11-19T03:55:41;1.90;;;1.80;;
5491;SDS011;2768;53.540;10.224;2023-11-19T04:01:36;1.90;;;1.80;;
5491;SDS011;2768;53.540;10.224;2023-11-19T04:07:30;2.30;;;2.20;;
5491;SDS011;2768;53.540;10.224;2023-11-19T04:13:24;2.67;;;2.17;;
5491;SDS011;2768;53.540;10.224;2023-11-19T04:19:19;2.47;;;2.37;;
5491;SDS011;2768;53.540;10.224;2023-11-19T04:25:12;3.20;;;2.60;;
5491;SDS011;2768;53.540;10.224;2023-11-19T04:31:07;2.23;;;2.13;;
5491;SDS011;2768;53.540;10.224;2023-11-19T04:37:02;3.10;;;2.80;;
5491;SDS011;2768;53.540;10.224;2023-11-19T04:42:59;2.83;;;2.73;;
5491;SDS011;2768;53.540;10.224;2023-11-19T04:48:53;2.97;;;2.77;;
5491;SDS011;2768;53.540;10.224;2023-11-19T04:54:48;2.80;;;2.60;;
5491;SDS011;2768;53.540;10.224;2023-11-19T05:00:41;3.57;;;3.03;;
5491;SDS011;2768;53.540;10.224;2023-11-19T05:06:34;4.10;;;3.43;;
5491;SDS011;2768;53.540;10.224;2023-11-19T05:12:30;3.97;;;3.40;;
5491;SDS011;2768;53.540;10.224;2023-11-19T05:18:23;4.30;;;3.90;;
5491;SDS011;2768;53.540;10.224;2023-11-19T05:24:16;7.47;;;4.20;;
5491;SDS011;2768;53.540;10.224;2023-11-19T05:30:12;6.27;;;5.23;;
5491;SDS011;2768;53.540;10.224;2023-11-19T05:36:06;5.90;;;5.40;;
5491;SDS011;2768;53.540;10.224;2023-11-19T05:42:00;7.73;;;5.60;;
5491;SDS011;2768;53.540;10.224;2023-11-19T05:47:55;8.10;;;5.57;;
5491;SDS011;2768;53.540;10.224;2023-11-19T05:53:49;9.70;;;6.80;;
5491;SDS011;2768;53.540;10.224;2023-11-19T05:59:43;10.43;;;8.00;;
5491;SDS011;2768;53.540;10.224;2023-11-19T06:05:39;9.90;;;8.03;;
5491;SDS011;2768;53.540;10.224;2023-11-19T06:11:33;13.63;;;8.73;;
5491;SDS011;2768;53.540;10.224;2023-11-19T06:17:27;12.57;;;8.97;;
5491;SDS011;2768;53.540;10.224;2023-11-19T06:23:23;10.23;;;8.57;;
5491;SDS011;2768;53.540;10.224;2023-11-19T06:29:16;18.03;;;9.80;;
5491;SDS011;2768;53.540;10.224;2023-11-19T06:35:12;14.13;;;9.80;;
5491;SDS011;2768;53.540;10.224;2023-11-19T06:41:08;15.93;;;10.13;;
5491;SDS011;2768;53.540;10.224;2023-11-19T06:47:02;21.07;;;10.37;;
5491;SDS011;2768;53.540;10.224;2023-11-19T06:52:56;19.07;;;9.40;;
5491;SDS011;2768;53.540;10.224;2023-11-19T06:58:51;21.17;;;9.80;;
5491;SDS011;2768;53.540;10.224;2023-11-19T07:04:44;17.40;;;8.37;;
5491;SDS011;2768;53.540;10.224;2023-11-19T07:10:37;24.73;;;7.73;;
5491;SDS011;2768;53.540;10.224;2023-11-19T07:16:32;16.47;;;7.17;;
5491;SDS011;2768;53.540;10.224;2023-11-19T07:22:26;24.90;;;6.83;;
5491;SDS011;2768;53.540;10.224;2023-11-19T07:28:22;22.50;;;7.40;;
5491;SDS011;2768;53.540;10.224;2023-11-19T07:34:17;11.50;;;5.57;;
5491;SDS011;2768;53.540;10.224;2023-11-19T07:40:11;18.30;;;6.23;;
5491;SDS011;2768;53.540;10.224;2023-11-19T07:46:09;21.77;;;6.57;;
5491;SDS011;2768;53.540;10.224;2023-11-19T07:52:05;21.10;;;5.83;;
5491;SDS011;2768;53.540;10.224;2023-11-19T07:58:12;26.23;;;6.23;;
5491;SDS011;2768;53.540;10.224;2023-11-19T08:04:06;25.80;;;6.30;;
5491;SDS011;2768;53.540;10.224;2023-11-19T08:10:01;21.93;;;7.10;;
5491;SDS011;2768;53.540;10.224;2023-11-19T08:15:54;21.70;;;6.37;;
5491;SDS011;2768;53.540;10.224;2023-11-19T08:21:48;26.53;;;5.30;;
5491;SDS011;2768;53.540;10.224;2023-11-19T08:27:42;23.93;;;5.27;;
5491;SDS011;2768;53.540;10.224;2023-11-19T08:33:36;27.40;;;6.10;;
5491;SDS011;2768;53.540;10.224;2023-11-19T08:39:29;31.33;;;5.87;;
5491;SDS011;2768;53.540;10.224;2023-11-19T08:45:24;29.37;;;5.40;;
5491;SDS011;2768;53.540;10.224;2023-11-19T08:51:18;26.47;;;5.60;;
5491;SDS011;2768;53.540;10.224;2023-11-19T08:57:11;30.43;;;6.60;;
5491;SDS011;2768;53.540;10.224;2023-11-19T09:03:06;33.27;;;6.70;;
5491;SDS011;2768;53.540;10.224;2023-11-19T09:09:01;24.60;;;4.40;;
5491;SDS011;2768;53.540;10.224;2023-11-19T09:14:54;23.63;;;5.23;;
5491;SDS011;2768;53.540;10.224;2023-11-19T09:20:49;23.00;;;5.07;;
5491;SDS011;2768;53.540;10.224;2023-11-19T09:26:43;21.90;;;6.47;;
5491;SDS011;2768;53.540;10.224;2023-11-19T09:32:36;28.80;;;4.87;;
5491;SDS011;2768;53.540;10.224;2023-11-19T09:38:32;27.10;;;4.83;;
5491;SDS011;2768;53.540;10.224;2023-11-19T09:44:25;28.23;;;6.07;;
5491;SDS011;2768;53.540;10.224;2023-11-19T09:50:19;26.57;;;6.43;;
5491;SDS011;2768;53.540;10.224;2023-11-19T09:56:14;25.93;;;5.27;;
5491;SDS011;2768;53.540;10.224;2023-11-19T10:02:09;26.13;;;6.10;;
5491;SDS011;2768;53.540;10.224;2023-11-19T10:08:03;26.33;;;5.77;;
5491;SDS011;2768;53.540;10.224;2023-11-19T10:13:59;29.50;;;6.07;;
5491;SDS011;2768;53.540;10.224;2023-11-19T10:19:52;22.67;;;5.30;;
5491;SDS011;2768;53.540;10.224;2023-11-19T10:25:45;23.87;;;4.53;;
5491;SDS011;2768;53.540;10.224;2023-11-19T10:31:40;27.27;;;5.13;;
5491;SDS011;2768;53.540;10.224;2023-11-19T10:37:47;27.23;;;5.77;;
5491;SDS011;2768;53.540;10.224;2023-11-19T10:43:42;28.17;;;5.50;;
5491;SDS011;2768;53.540;10.224;2023-11-19T10:49:38;21.70;;;4.73;;
5491;SDS011;2768;53.540;10.224;2023-11-19T10:55:33;21.60;;;4.87;;
5491;SDS011;2768;53.540;10.224;2023-11-19T11:01:27;26.80;;;5.20;;
5491;SDS011;2768;53.540;10.224;2023-11-19T11:07:29;26.63;;;5.30;;
5491;SDS011;2768;53.540;10.224;2023-11-19T11:13:32;25.27;;;5.40;;
5491;SDS011;2768;53.540;10.224;2023-11-19T11:19:26;20.07;;;4.37;;
5491;SDS011;2768;53.540;10.224;2023-11-19T11:25:24;21.97;;;4.43;;
5491;SDS011;2768;53.540;10.224;2023-11-19T11:31:31;20.60;;;4.67;;
5491;SDS011;2768;53.540;10.224;2023-11-19T11:37:32;23.97;;;4.97;;
5491;SDS011;2768;53.540;10.224;2023-11-19T11:49:42;19.20;;;3.83;;
5491;SDS011;2768;53.540;10.224;2023-11-19T11:55:36;21.57;;;6.37;;
5491;SDS011;2768;53.540;10.224;2023-11-19T12:01:31;18.60;;;4.47;;
5491;SDS011;2768;53.540;10.224;2023-11-19T12:07:24;25.23;;;6.10;;
5491;SDS011;2768;53.540;10.224;2023-11-19T12:13:18;22.80;;;4.83;;
5491;SDS011;2768;53.540;10.224;2023-11-19T12:19:15;23.80;;;4.27;;
5491;SDS011;2768;53.540;10.224;2023-11-19T12:25:09;32.13;;;4.97;;
5491;SDS011;2768;53.540;10.224;2023-11-19T12:31:07;21.70;;;4.33;;
5491;SDS011;2768;53.540;10.224;2023-11-19T12:37:04;23.27;;;5.60;;
5491;SDS011;2768;53.540;10.224;2023-11-19T12:42:58;19.00;;;4.30;;
5491;SDS011;2768;53.540;10.224;2023-11-19T12:48:52;19.50;;;5.03;;
5491;SDS011;2768;53.540;10.224;2023-11-19T12:54:46;22.17;;;4.27;;
5491;SDS011;2768;53.540;10.224;2023-11-19T13:00:40;23.30;;;5.37;;
5491;SDS011;2768;53.540;10.224;2023-11-19T13:06:33;24.07;;;4.83;;
5491;SDS011;2768;53.540;10.224;2023-11-19T13:12:27;16.73;;;4.23;;
5491;SDS011;2768;53.540;10.224;2023-11-19T13:18:21;25.93;;;4.43;;
5491;SDS011;2768;53.540;10.224;2023-11-19T13:24:14;19.93;;;4.53;;
5491;SDS011;2768;53.540;10.224;2023-11-19T13:30:09;23.20;;;4.43;;
5491;SDS011;2768;53.540;10.224;2023-11-19T13:36:18;18.50;;;4.63;;
5491;SDS011;2768;53.540;10.224;2023-11-19T13:42:11;18.20;;;3.90;;
5491;SDS011;2768;53.540;10.224;2023-11-19T13:48:06;17.63;;;3.90;;
5491;SDS011;2768;53.540;10.224;2023-11-19T13:54:00;17.33;;;4.03;;
5491;SDS011;2768;53.540;10.224;2023-11-19T13:59:53;16.83;;;4.53;;
5491;SDS011;2768;53.540;10.224;2023-11-19T14:05:48;21.40;;;4.43;;
5491;SDS011;2768;53.540;10.224;2023-11-19T14:11:44;23.30;;;5.03;;
5491;SDS011;2768;53.540;10.224;2023-11-19T14:17:37;22.23;;;4.50;;
5491;SDS011;2768;53.540;10.224;2023-11-19T14:23:31;22.63;;;4.90;;
5491;SDS011;2768;53.540;10.224;2023-11-19T14:29:25;21.40;;;4.90;;
5491;SDS011;2768;53.540;10.224;2023-11-19T14:35:18;20.77;;;4.77;;
5491;SDS011;2768;53.540;10.224;2023-11-19T14:41:13;19.10;;;4.90;;
5491;SDS011;2768;53.540;10.224;2023-11-19T14:47:07;27.50;;;4.80;;
5491;SDS011;2768;53.540;10.224;2023-11-19T14:53:01;23.47;;;6.17;;
5491;SDS011;2768;53.540;10.224;2023-11-19T14:58:56;25.03;;;7.50;;
5491;SDS011;2768;53.540;10.224;2023-11-19T15:04:50;19.27;;;4.37;;
5491;SDS011;2768;53.540;10.224;2023-11-19T15:10:43;21.47;;;4.70;;
5491;SDS011;2768;53.540;10.224;2023-11-19T15:16:39;16.80;;;4.10;;
5491;SDS011;2768;53.540;10.224;2023-11-19T15:22:33;18.40;;;4.43;;
5491;SDS011;2768;53.540;10.224;2023-11-19T15:28:27;6.50;;;2.20;;
5491;SDS011;2768;53.540;10.224;2023-11-19T15:34:23;5.70;;;2.03;;
5491;SDS011;2768;53.540;10.224;2023-11-19T15:40:16;4.97;;;1.53;;
5491;SDS011;2768;53.540;10.224;2023-11-19T15:46:11;5.77;;;2.80;;
5491;SDS011;2768;53.540;10.224;2023-11-19T15:52:06;3.00;;;2.10;;
5491;SDS011;2768;53.540;10.224;2023-11-19T15:57:59;8.57;;;2.47;;
5491;SDS011;2768;53.540;10.224;2023-11-19T16:03:52;6.87;;;2.10;;
5491;SDS011;2768;53.540;10.224;2023-11-19T16:09:47;7.97;;;2.90;;
5491;SDS011;2768;53.540;10.224;2023-11-19T16:15:41;18.17;;;3.73;;
5491;SDS011;2768;53.540;10.224;2023-11-19T16:21:34;12.10;;;3.90;;
5491;SDS011;2768;53.540;10.224;2023-11-19T16:27:29;22.07;;;4.27;;
5491;SDS011;2768;53.540;10.224;2023-11-19T16:33:22;15.67;;;4.00;;
5491;SDS011;2768;53.540;10.224;2023-11-19T16:39:21;17.03;;;3.23;;
5491;SDS011;2768;53.540;10.224;2023-11-19T16:45:16;14.47;;;4.23;;
5491;SDS011;2768;53.540;10.224;2023-11-19T16:51:10;18.00;;;3.90;;
5491;SDS011;2768;53.540;10.224;2023-11-19T16:57:05;15.57;;;3.47;;
5491;SDS011;2768;53.540;10.224;2023-11-19T17:03:00;10.87;;;3.40;;
5491;SDS011;2768;53.540;10.224;2023-11-19T17:08:54;13.83;;;3.60;;
5491;SDS011;2768;53.540;10.224;2023-11-19T17:14:47;12.87;;;3.77;;
5491;SDS011;2768;53.540;10.224;2023-11-19T17:20:42;11.03;;;2.90;;
5491;SDS011;2768;53.540;10.224;2023-11-19T17:26:35;9.13;;;3.20;;
5491;SDS011;2768;53.540;10.224;2023-11-19T17:32:32;11.70;;;3.10;;
5491;SDS011;2768;53.540;10.224;2023-11-19T17:38:27;8.20;;;2.97;;
5491;SDS011;2768;53.540;10.224;2023-11-19T17:44:20;8.07;;;2.60;;
5491;SDS011;2768;53.540;10.224;2023-11-19T17:50:14;7.87;;;2.67;;
5491;SDS011;2768;53.540;10.224;2023-11-19T17:56:12;11.27;;;3.03;;
5491;SDS011;2768;53.540;10.224;2023-11-19T18:02:06;6.17;;;2.20;;
5491;SDS011;2768;53.540;10.224;2023-11-19T18:07:59;7.30;;;3.00;;
5491;SDS011;2768;53.540;10.224;2023-11-19T18:13:54;6.37;;;2.10;;
5491;SDS011;2768;53.540;10.224;2023-11-19T18:19:49;9.33;;;2.50;;
5491;SDS011;2768;53.540;10.224;2023-11-19T18:25:42;5.37;;;2.17;;
5491;SDS011;2768;53.540;10.224;2023-11-19T18:31:39;6.30;;;2.43;;
5491;SDS011;2768;53.540;10.224;2023-11-19T18:37:32;6.50;;;2.90;;
5491;SDS011;2768;53.540;10.224;2023-11-19T18:43:25;7.23;;;2.20;;
5491;SDS011;2768;53.540;10.224;2023-11-19T18:49:20;6.40;;;2.57;;
5491;SDS011;2768;53.540;10.224;2023-11-19T18:55:15;10.93;;;3.20;;
5491;SDS011;2768;53.540;10.224;2023-11-19T19:01:08;13.33;;;3.50;;
5491;SDS011;2768;53.540;10.224;2023-11-19T19:07:07;13.13;;;4.10;;
5491;SDS011;2768;53.540;10.224;2023-11-19T19:13:01;14.10;;;4.87;;
5491;SDS011;2768;53.540;10.224;2023-11-19T19:18:54;15.93;;;4.73;;
5491;SDS011;2768;53.540;10.224;2023-11-19T19:24:49;13.47;;;5.23;;
5491;SDS011;2768;53.540;10.224;2023-11-19T19:30:42;14.53;;;5.40;;
5491;SDS011;2768;53.540;10.224;2023-11-19T19:36:36;17.43;;;6.93;;
5491;SDS011;2768;53.540;10.224;2023-11-19T19:42:31;15.63;;;6.83;;
5491;SDS011;2768;53.540;10.224;2023-11-19T19:48:24;14.77;;;5.10;;
5491;SDS011;2768;53.540;10.224;2023-11-19T19:54:18;20.87;;;5.67;;
5491;SDS011;2768;53.540;10.224;2023-11-19T20:00:14;27.53;;;7.50;;
5491;SDS011;2768;53.540;10.224;2023-11-19T20:06:10;16.00;;;5.80;;
5491;SDS011;2768;53.540;10.224;2023-11-19T20:12:04;18.00;;;6.53;;
5491;SDS011;2768;53.540;10.224;2023-11-19T20:17:59;20.30;;;6.20;;
5491;SDS011;2768;53.540;10.224;2023-11-19T20:23:53;18.60;;;4.90;;
5491;SDS011;2768;53.540;10.224;2023-11-19T20:29:46;15.63;;;4.90;;
5491;SDS011;2768;53.540;10.224;2023-11-19T20:35:41;10.50;;;4.43;;
5491;SDS011;2768;53.540;10.224;2023-11-19T20:41:35;16.23;;;5.27;;
5491;SDS011;2768;53.540;10.224;2023-11-19T20:47:28;13.90;;;5.13;;
5491;SDS011;2768;53.540;10.224;2023-11-19T20:53:23;10.70;;;4.80;;
5491;SDS011;2768;53.540;10.224;2023-11-19T20:59:16;15.87;;;5.43;;
5491;SDS011;2768;53.540;10.224;2023-11-19T21:05:10;17.30;;;5.83;;
5491;SDS011;2768;53.540;10.224;2023-11-19T21:11:08;15.10;;;5.43;;
5491;SDS011;2768;53.540;10.224;2023-11-19T21:17:02;25.47;;;6.53;;
5491;SDS011;2768;53.540;10.224;2023-11-19T21:22:57;16.57;;;5.93;;
5491;SDS011;2768;53.540;10.224;2023-11-19T21:28:52;16.53;;;6.40;;
5491;SDS011;2768;53.540;10.224;2023-11-19T21:34:45;22.60;;;7.50;;
5491;SDS011;2768;53.540;10.224;2023-11-19T21:40:39;18.83;;;6.87;;
5491;SDS011;2768;53.540;10.224;2023-11-19T21:46:34;17.27;;;5.53;;
5491;SDS011;2768;53.540;10.224;2023-11-19T21:52:27;15.70;;;6.43;;
5491;SDS011;2768;53.540;10.224;2023-11-19T21:58:20;15.30;;;6.23;;
5491;SDS011;2768;53.540;10.224;2023-11-19T22:04:16;17.20;;;6.03;;
5491;SDS011;2768;53.540;10.224;2023-11-19T22:10:09;17.10;;;5.60;;
5491;SDS011;2768;53.540;10.224;2023-11-19T22:16:05;16.63;;;7.20;;
5491;SDS011;2768;53.540;10.224;2023-11-19T22:22:00;20.30;;;6.73;;
5491;SDS011;2768;53.540;10.224;2023-11-19T22:27:53;12.07;;;6.73;;
5491;SDS011;2768;53.540;10.224;2023-11-19T22:33:47;12.67;;;6.73;;
5491;SDS011;2768;53.540;10.224;2023-11-19T22:39:42;22.33;;;7.60;;
5491;SDS011;2768;53.540;10.224;2023-11-19T22:45:36;14.20;;;6.77;;
5491;SDS011;2768;53.540;10.224;2023-11-19T22:51:29;22.10;;;8.10;;
5491;SDS011;2768;53.540;10.224;2023-11-19T22:57:24;15.03;;;7.53;;
5491;SDS011;2768;53.540;10.224;2023-11-19T23:03:18;14.93;;;5.73;;
5491;SDS011;2768;53.540;10.224;2023-11-19T23:09:11;13.10;;;5.43;;
5491;SDS011;2768;53.540;10.224;2023-11-19T23:15:07;12.60;;;5.10;;
5491;SDS011;2768;53.540;10.224;2023-11-19T23:21:06;9.30;;;4.50;;
5491;SDS011;2768;53.540;10.224;2023-11-19T23:27:00;5.23;;;2.77;;
5491;SDS011;2768;53.540;10.224;2023-11-19T23:32:55;8.07;;;3.30;;
5491;SDS011;2768;53.540;10.224;2023-11-19T23:38:48;9.33;;;4.10;;
5491;SDS011;2768;53.540;10.224;2023-11-19T23:44:42;11.50;;;5.40;;
5491;SDS011;2768;53.540;10.224;2023-11-19T23:50:37;18.93;;;6.47;;
5491;SDS011;2768;53.540;10.224;2023-11-19T23:56:50;12.80;;;6.47;;
